createdAt,value
2022-09-28T06:14:55.363Z,6.86
2022-09-28T06:24:55.412Z,6.91
2022-09-28T06:34:56.445Z,6.98
2022-09-28T06:44:55.412Z,7.03
2022-09-28T06:54:55.405Z,7.12
2022-09-28T07:04:55.432Z,7.26
2022-09-28T07:14:55.633Z,7.42
2022-09-28T07:24:55.508Z,7.50
2022-09-28T07:34:58.797Z,7.47
2022-09-28T07:44:55.454Z,7.65
2022-09-28T07:54:55.408Z,7.64
2022-09-28T08:04:55.465Z,7.72
2022-09-28T08:14:55.440Z,7.73
2022-09-28T08:24:55.514Z,7.89
2022-09-28T08:34:55.533Z,7.79
2022-09-28T08:44:55.509Z,7.88
2022-09-28T08:54:55.526Z,8.00
2022-09-28T09:04:55.350Z,8.04
2022-09-28T09:14:55.513Z,7.93
2022-09-28T09:24:55.419Z,7.93
2022-09-28T09:34:55.717Z,7.93
2022-09-28T09:44:55.680Z,8.00
2022-09-28T09:54:55.691Z,7.94
2022-09-28T10:04:55.726Z,8.11
2022-09-28T10:14:55.624Z,8.12
2022-09-28T10:24:55.657Z,8.19
2022-09-28T10:34:55.903Z,8.58
2022-09-28T10:44:55.643Z,8.31
2022-09-28T10:54:55.825Z,8.13
2022-09-28T11:04:55.600Z,7.96
2022-09-28T11:14:55.709Z,7.85
2022-09-28T11:24:55.722Z,7.92
2022-09-28T11:34:59.617Z,7.90
2022-09-28T11:44:55.637Z,8.08
2022-09-28T11:54:55.757Z,8.12
2022-09-28T12:04:55.706Z,7.86
2022-09-28T12:14:55.647Z,7.65
2022-09-28T12:24:55.692Z,7.57
2022-09-28T12:34:55.616Z,8.13
2022-09-28T12:44:59.290Z,7.96
2022-09-28T12:54:55.766Z,7.88
2022-09-28T13:04:55.645Z,7.81
2022-09-28T13:14:55.784Z,7.68
2022-09-28T13:24:55.795Z,7.91
2022-09-28T13:34:55.601Z,8.26
2022-09-28T13:44:56.032Z,8.39
2022-09-28T13:54:55.723Z,8.90
2022-09-28T14:04:56.887Z,9.32
2022-09-28T14:14:55.821Z,8.98
2022-09-28T14:24:55.916Z,8.99
2022-09-28T14:34:55.930Z,9.16
2022-09-28T14:44:55.743Z,9.06
2022-09-28T14:54:55.750Z,9.01
2022-09-28T15:04:55.995Z,9.07
2022-09-28T15:14:59.284Z,9.06
2022-09-28T15:24:59.978Z,9.06
2022-09-28T15:34:55.978Z,8.80
2022-09-28T15:44:55.794Z,8.72
2022-09-28T15:54:55.848Z,8.70
2022-09-28T16:04:55.857Z,8.73
2022-09-28T16:14:55.797Z,8.68
2022-09-28T16:24:55.933Z,8.67
2022-09-28T16:34:55.802Z,8.63
2022-09-28T16:44:55.852Z,8.86
2022-09-28T16:54:55.809Z,8.68
2022-09-28T17:04:55.759Z,8.33
2022-09-28T17:14:55.845Z,8.02
2022-09-28T17:24:55.833Z,7.90
2022-09-28T17:35:12.815Z,7.83
2022-09-28T17:44:55.820Z,7.88
2022-09-28T17:54:55.830Z,7.79
2022-09-28T18:04:55.993Z,7.78
2022-09-28T18:14:55.894Z,7.79
2022-09-28T18:24:55.937Z,7.94
2022-09-28T18:34:55.970Z,7.91
2022-09-28T18:44:56.283Z,7.82
2022-09-28T18:54:56.292Z,7.83
2022-09-28T19:04:56.443Z,7.97
2022-09-28T19:14:56.510Z,8.00
